createdAt,value
2017-12-03T00:01:11.778Z,0.10
2017-12-03T00:03:40.308Z,0.20
2017-12-03T00:06:08.777Z,0.10
2017-12-03T00:08:37.629Z,0.10
2017-12-03T00:11:06.811Z,0.00
2017-12-03T00:13:35.226Z,0.00
2017-12-03T00:16:03.986Z,0.00
2017-12-03T00:18:33.128Z,0.00
2017-12-03T00:21:01.768Z,0.00
2017-12-03T00:23:31.012Z,0.00
2017-12-03T00:25:59.449Z,0.00
2017-12-03T00:28:28.622Z,0.00
2017-12-03T00:30:57.076Z,0.00
2017-12-03T00:33:25.510Z,0.10
2017-12-03T00:35:54.666Z,0.10
2017-12-03T00:38:23.578Z,0.10
2017-12-03T00:40:52.010Z,0.00
2017-12-03T00:43:20.401Z,0.10
2017-12-03T00:45:49.569Z,0.10
2017-12-03T00:48:17.965Z,0.10
2017-12-03T00:50:46.374Z,0.10
2017-12-03T00:53:14.827Z,0.00
2017-12-03T00:55:43.243Z,0.10
2017-12-03T00:58:11.673Z,0.10
2017-12-03T01:00:40.431Z,0.10
2017-12-03T01:03:09.588Z,0.20
2017-12-03T01:05:37.987Z,0.20
2017-12-03T01:08:06.610Z,0.20
2017-12-03T01:10:35.258Z,0.10
2017-12-03T01:13:03.685Z,0.20
2017-12-03T01:15:32.366Z,0.00
2017-12-03T01:18:00.890Z,0.00
2017-12-03T01:20:29.330Z,0.10
2017-12-03T01:22:57.860Z,0.10
2017-12-03T01:25:27.087Z,0.10
2017-12-03T01:27:55.542Z,0.00
2017-12-03T01:30:24.088Z,0.00
2017-12-03T01:32:52.509Z,0.00
2017-12-03T01:35:20.985Z,0.00
2017-12-03T01:37:49.564Z,0.00
2017-12-03T01:40:17.996Z,0.00
2017-12-03T01:42:46.422Z,0.00
2017-12-03T01:45:15.241Z,0.00
2017-12-03T01:47:44.767Z,0.10
2017-12-03T01:50:13.196Z,0.10
2017-12-03T01:52:41.793Z,0.00
2017-12-03T01:55:10.212Z,0.00
2017-12-03T01:57:38.649Z,0.00
2017-12-03T02:00:07.391Z,0.00
2017-12-03T02:02:35.820Z,0.00
2017-12-03T02:05:05.015Z,0.00
2017-12-03T02:07:33.515Z,0.00
2017-12-03T02:10:02.701Z,0.00
2017-12-03T02:12:31.113Z,0.00
2017-12-03T02:14:59.574Z,0.00
2017-12-03T02:17:28.768Z,0.00
2017-12-03T02:19:58.004Z,0.00
2017-12-03T02:22:26.604Z,0.00
2017-12-03T02:24:55.191Z,0.00
2017-12-03T02:27:23.594Z,0.00
2017-12-03T02:29:52.178Z,0.00
2017-12-03T02:32:20.571Z,0.00
2017-12-03T02:34:48.979Z,0.00
2017-12-03T02:37:17.630Z,0.00
2017-12-03T02:39:46.013Z,0.00
2017-12-03T02:42:14.414Z,0.10
2017-12-03T02:44:43.085Z,0.10
2017-12-03T02:47:12.274Z,0.00
2017-12-03T02:49:41.866Z,0.00
2017-12-03T02:52:10.664Z,0.00
2017-12-03T02:54:39.068Z,0.00
2017-12-03T02:57:07.455Z,0.00
2017-12-03T02:59:36.122Z,0.10
2017-12-03T03:02:05.348Z,0.00
2017-12-03T03:04:33.776Z,0.00
2017-12-03T03:07:02.414Z,0.00
2017-12-03T03:09:30.817Z,-0.10
2017-12-03T03:11:59.253Z,0.00
2017-12-03T03:14:27.928Z,0.00
2017-12-03T03:16:57.122Z,0.00
2017-12-03T03:19:26.279Z,0.00
2017-12-03T03:21:54.738Z,0.00
2017-12-03T03:24:23.122Z,0.00
2017-12-03T03:26:51.573Z,0.00
2017-12-03T03:29:20.835Z,0.10
2017-12-03T03:31:49.256Z,0.00
2017-12-03T03:34:17.651Z,0.10
2017-12-03T03:36:46.150Z,0.00
2017-12-03T03:39:14.774Z,0.00
2017-12-03T03:41:43.151Z,0.00
2017-12-03T03:44:11.606Z,0.00
2017-12-03T03:46:39.976Z,0.00
2017-12-03T03:49:09.292Z,0.00
2017-12-03T03:51:38.037Z,0.10
2017-12-03T03:54:06.428Z,0.10
2017-12-03T03:56:34.938Z,0.10
2017-12-03T03:59:04.364Z,0.00
2017-12-03T04:01:32.797Z,0.00
2017-12-03T04:04:01.329Z,0.00
2017-12-03T04:06:31.139Z,0.00
2017-12-03T04:09:00.358Z,0.00
2017-12-03T04:11:29.613Z,0.00
2017-12-03T04:13:58.212Z,0.00
2017-12-03T04:16:26.571Z,-0.10
2017-12-03T04:18:54.984Z,-0.10
2017-12-03T04:21:24.282Z,-0.20
2017-12-03T04:23:53.510Z,-0.20
2017-12-03T04:26:21.941Z,-0.20
2017-12-03T04:28:50.662Z,-0.20
2017-12-03T04:31:19.817Z,-0.20
2017-12-03T04:33:48.269Z,-0.20
2017-12-03T04:36:17.117Z,-0.20
2017-12-03T04:38:46.335Z,-0.30
2017-12-03T04:41:14.812Z,-0.30
2017-12-03T04:43:43.440Z,-0.20
2017-12-03T04:46:11.947Z,-0.20
2017-12-03T04:48:40.443Z,-0.20
2017-12-03T04:51:09.728Z,-0.30
2017-12-03T04:53:39.377Z,-0.20
2017-12-03T04:56:07.854Z,-0.30
2017-12-03T04:58:36.390Z,-0.20
2017-12-03T05:01:04.882Z,-0.30
2017-12-03T05:03:33.336Z,-0.30
2017-12-03T05:06:01.868Z,-0.30
2017-12-03T05:08:31.250Z,-0.30
2017-12-03T05:10:59.754Z,-0.30
2017-12-03T05:13:28.646Z,-0.30
2017-12-03T05:15:57.105Z,-0.30
2017-12-03T05:18:26.062Z,-0.30
2017-12-03T05:20:54.536Z,-0.40
2017-12-03T05:23:22.992Z,-0.40
2017-12-03T05:25:51.484Z,-0.40
2017-12-03T05:28:19.994Z,-0.40
2017-12-03T05:30:48.497Z,-0.40
2017-12-03T05:33:16.910Z,-0.30
2017-12-03T05:35:45.405Z,-0.40
2017-12-03T05:38:13.861Z,-0.40
2017-12-03T05:40:42.323Z,-0.40
2017-12-03T05:43:11.335Z,-0.40
2017-12-03T05:45:39.809Z,-0.40
2017-12-03T05:48:09.205Z,-0.40
2017-12-03T05:50:37.719Z,-0.40
2017-12-03T05:53:06.187Z,-0.40
2017-12-03T05:55:35.101Z,-0.40
2017-12-03T05:58:03.609Z,-0.40
2017-12-03T06:00:32.112Z,-0.50
2017-12-03T06:03:00.553Z,-0.40
2017-12-03T06:05:29.161Z,-0.40
2017-12-03T06:07:58.116Z,-0.40
2017-12-03T06:10:26.598Z,-0.40
2017-12-03T06:12:55.346Z,-0.50
2017-12-03T06:15:23.802Z,-0.50
2017-12-03T06:17:52.261Z,-0.50
2017-12-03T06:20:21.090Z,-0.50
2017-12-03T06:22:49.514Z,-0.50
2017-12-03T06:25:17.965Z,-0.50
2017-12-03T06:27:47.371Z,-0.40
2017-12-03T06:30:15.870Z,-0.50
2017-12-03T06:32:44.411Z,-0.50
2017-12-03T06:35:13.714Z,-0.50
2017-12-03T06:37:42.203Z,-0.60
2017-12-03T06:40:11.450Z,-0.50
2017-12-03T06:42:40.082Z,-0.50
2017-12-03T06:45:08.601Z,-0.60
2017-12-03T06:47:37.074Z,-0.60
2017-12-03T06:50:05.937Z,-0.60
2017-12-03T06:52:35.181Z,-0.60
2017-12-03T06:55:03.610Z,-0.60
2017-12-03T06:57:32.659Z,-0.60
2017-12-03T07:00:01.132Z,-0.60
2017-12-03T07:02:29.594Z,-0.60
2017-12-03T07:04:58.869Z,-0.70
2017-12-03T07:07:27.382Z,-0.70
2017-12-03T07:09:55.861Z,-0.70
2017-12-03T07:12:24.498Z,-0.70
2017-12-03T07:14:52.978Z,-0.70
2017-12-03T07:17:21.423Z,-0.70
2017-12-03T07:19:50.259Z,-0.70
2017-12-03T07:22:19.193Z,-0.80
2017-12-03T07:24:47.674Z,-0.70
2017-12-03T07:27:16.367Z,-0.80
2017-12-03T07:29:44.837Z,-0.80
2017-12-03T07:32:13.317Z,-0.80
2017-12-03T07:34:42.055Z,-0.70
2017-12-03T07:37:10.533Z,-0.80
2017-12-03T07:39:39.802Z,-0.80
2017-12-03T07:42:08.450Z,-0.80
2017-12-03T07:44:37.719Z,-0.80
2017-12-03T07:47:07.290Z,-0.80
2017-12-03T07:49:35.947Z,-0.80
2017-12-03T07:52:05.197Z,-0.80
2017-12-03T07:54:33.667Z,-0.80
2017-12-03T07:57:02.398Z,-0.80
2017-12-03T07:59:32.177Z,-0.80
2017-12-03T08:02:00.615Z,-0.80
2017-12-03T08:04:29.683Z,-0.70
2017-12-03T08:06:58.931Z,-0.80
2017-12-03T08:09:27.381Z,-0.80
2017-12-03T08:11:56.664Z,-0.80
2017-12-03T08:14:25.129Z,-0.80
2017-12-03T08:16:53.602Z,-0.70
2017-12-03T08:19:22.329Z,-0.70
2017-12-03T08:21:50.827Z,-0.80
2017-12-03T08:24:19.331Z,-0.80
2017-12-03T08:26:48.289Z,-0.80
2017-12-03T08:29:17.589Z,-0.70
2017-12-03T08:31:46.784Z,-0.70
2017-12-03T08:34:16.269Z,-0.70
2017-12-03T08:36:45.558Z,-0.70
2017-12-03T08:39:14.022Z,-0.70
2017-12-03T08:41:42.684Z,-0.70
2017-12-03T08:44:11.197Z,-0.70
2017-12-03T08:46:39.678Z,-0.70
2017-12-03T08:49:08.241Z,-0.70
2017-12-03T08:51:36.720Z,-0.80
2017-12-03T08:54:05.222Z,-0.70
2017-12-03T08:56:33.737Z,-0.70
2017-12-03T08:59:02.989Z,-0.70
2017-12-03T09:01:31.932Z,-0.70
2017-12-03T09:04:01.239Z,-0.70
2017-12-03T09:06:30.487Z,-0.70
2017-12-03T09:08:58.937Z,-0.70
2017-12-03T09:11:27.691Z,-0.70
2017-12-03T09:13:56.973Z,-0.70
2017-12-03T09:16:25.430Z,-0.70
2017-12-03T09:18:53.992Z,-0.70
2017-12-03T09:21:22.485Z,-0.70
2017-12-03T09:23:51.058Z,-0.70
2017-12-03T09:26:20.240Z,-0.70
2017-12-03T09:28:48.736Z,-0.70
2017-12-03T09:31:17.214Z,-0.70
2017-12-03T09:33:45.766Z,-0.70
2017-12-03T09:36:15.058Z,-0.70
2017-12-03T09:38:44.351Z,-0.70
2017-12-03T09:41:13.692Z,-0.60
2017-12-03T09:43:42.144Z,-0.70
2017-12-03T09:46:11.368Z,-0.70
2017-12-03T09:48:40.040Z,-0.60
2017-12-03T09:51:09.600Z,-0.60
2017-12-03T09:53:38.110Z,-0.60
2017-12-03T09:56:06.858Z,-0.60
2017-12-03T09:58:35.373Z,-0.60
2017-12-03T10:01:04.693Z,-0.60
2017-12-03T10:03:33.803Z,-0.60
2017-12-03T10:06:02.280Z,-0.60
2017-12-03T10:08:31.564Z,-0.50
2017-12-03T10:11:01.073Z,-0.50
2017-12-03T10:13:30.344Z,-0.50
2017-12-03T10:15:59.927Z,-0.50
2017-12-03T10:18:28.462Z,-0.50
2017-12-03T10:20:57.699Z,-0.50
2017-12-03T10:23:26.204Z,-0.50
2017-12-03T10:25:54.824Z,-0.50
2017-12-03T10:28:24.136Z,-0.50
2017-12-03T10:30:52.574Z,-0.50
2017-12-03T10:33:21.120Z,-0.40
2017-12-03T10:35:49.607Z,-0.50
2017-12-03T10:38:20.982Z,-0.40
2017-12-03T10:40:50.500Z,-0.40
2017-12-03T10:43:18.977Z,-0.40
2017-12-03T10:45:47.389Z,-0.40
2017-12-03T10:48:16.757Z,-0.40
2017-12-03T10:50:45.327Z,-0.40
2017-12-03T10:53:13.884Z,-0.40
2017-12-03T10:55:42.388Z,-0.40
2017-12-03T10:58:10.878Z,-0.40
2017-12-03T11:00:39.391Z,-0.40
2017-12-03T11:03:09.036Z,-0.40
2017-12-03T11:05:38.016Z,-0.40
2017-12-03T11:08:06.480Z,-0.40
2017-12-03T11:10:35.870Z,-0.40
2017-12-03T11:13:05.053Z,-0.40
2017-12-03T11:15:33.519Z,-0.40
2017-12-03T11:18:02.349Z,-0.40
2017-12-03T11:20:30.854Z,-0.30
2017-12-03T11:22:59.296Z,-0.30
2017-12-03T11:25:27.970Z,-0.30
2017-12-03T11:27:56.432Z,-0.30
2017-12-03T11:30:25.042Z,-0.40
2017-12-03T11:32:53.494Z,-0.30
2017-12-03T11:35:21.966Z,-0.30
2017-12-03T11:37:50.412Z,-0.30
2017-12-03T11:40:18.889Z,-0.20
2017-12-03T11:42:47.346Z,-0.30
2017-12-03T11:45:15.764Z,-0.20
2017-12-03T11:47:44.598Z,-0.20
2017-12-03T11:50:13.034Z,-0.30
2017-12-03T11:52:41.448Z,-0.30
2017-12-03T11:55:10.380Z,-0.30
2017-12-03T11:57:39.608Z,-0.30
2017-12-03T12:00:08.055Z,-0.30
2017-12-03T12:02:37.373Z,-0.30
2017-12-03T12:05:05.812Z,-0.30
2017-12-03T12:07:34.530Z,-0.20
2017-12-03T12:10:04.082Z,-0.20
2017-12-03T12:12:32.539Z,-0.30
2017-12-03T12:15:01.014Z,-0.30
2017-12-03T12:17:29.615Z,-0.30
2017-12-03T12:19:58.421Z,-0.20
2017-12-03T12:22:26.871Z,-0.20
2017-12-03T12:24:55.318Z,-0.30
2017-12-03T12:27:24.499Z,-0.30
2017-12-03T12:29:52.958Z,-0.30
2017-12-03T12:32:22.608Z,-0.20
2017-12-03T12:34:51.843Z,-0.30
2017-12-03T12:37:20.328Z,-0.30
2017-12-03T12:39:48.853Z,-0.20
2017-12-03T12:42:17.336Z,-0.20
2017-12-03T12:44:46.676Z,-0.20
2017-12-03T12:47:15.381Z,-0.20
2017-12-03T12:49:43.859Z,-0.20
2017-12-03T12:52:12.330Z,-0.20
2017-12-03T12:54:41.093Z,-0.20
2017-12-03T12:57:10.419Z,-0.10
2017-12-03T12:59:38.977Z,-0.10
2017-12-03T13:02:08.224Z,-0.10
2017-12-03T13:04:36.639Z,-0.10
2017-12-03T13:07:05.088Z,-0.10
2017-12-03T13:09:33.942Z,-0.10
2017-12-03T13:12:02.395Z,-0.10
2017-12-03T13:14:31.603Z,-0.10
2017-12-03T13:17:01.162Z,-0.10
2017-12-03T13:19:29.577Z,-0.10
2017-12-03T13:21:58.788Z,-0.10
2017-12-03T13:24:27.706Z,-0.20
2017-12-03T13:26:56.138Z,-0.10
2017-12-03T13:29:25.338Z,-0.10
2017-12-03T13:31:53.958Z,-0.10
2017-12-03T13:34:22.489Z,-0.10
2017-12-03T13:36:51.756Z,-0.10
2017-12-03T13:39:20.613Z,-0.10
2017-12-03T13:41:49.820Z,0.00
2017-12-03T13:44:18.339Z,0.00
2017-12-03T13:46:47.005Z,0.00
2017-12-03T13:49:15.468Z,0.00
2017-12-03T13:51:44.003Z,0.00
2017-12-03T13:54:12.541Z,-0.10
2017-12-03T13:56:40.986Z,-0.10
2017-12-03T13:59:09.609Z,0.00
2017-12-03T14:01:38.296Z,-0.10
2017-12-03T14:04:06.724Z,0.00
2017-12-03T14:06:35.160Z,-0.10
2017-12-03T14:09:04.501Z,-0.10
2017-12-03T14:11:33.428Z,-0.10
2017-12-03T14:14:01.892Z,-0.10
2017-12-03T14:16:31.432Z,-0.10
2017-12-03T14:18:59.924Z,-0.10
2017-12-03T14:21:29.160Z,0.00
2017-12-03T14:23:57.914Z,0.00
2017-12-03T14:26:26.360Z,0.00
2017-12-03T14:28:55.648Z,0.00
2017-12-03T14:31:24.912Z,0.00
2017-12-03T14:33:53.370Z,0.00
2017-12-03T14:36:21.808Z,0.00
2017-12-03T14:38:50.325Z,0.00
2017-12-03T14:41:18.765Z,0.00
2017-12-03T14:43:47.193Z,0.00
2017-12-03T14:46:15.921Z,0.00
2017-12-03T14:48:44.668Z,0.00
2017-12-03T14:51:13.079Z,0.00
2017-12-03T14:53:41.545Z,0.00
2017-12-03T14:56:09.958Z,0.00
2017-12-03T14:58:39.195Z,0.00
2017-12-03T15:01:08.018Z,-0.10
2017-12-03T15:03:36.530Z,0.00
2017-12-03T15:06:06.753Z,0.00
2017-12-03T15:08:35.223Z,0.00
2017-12-03T15:11:03.706Z,0.00
2017-12-03T15:13:32.726Z,0.00
2017-12-03T15:16:01.280Z,0.00
2017-12-03T15:18:29.767Z,0.00
2017-12-03T15:20:58.244Z,0.00
2017-12-03T15:23:27.073Z,0.00
2017-12-03T15:25:56.466Z,0.00
2017-12-03T15:28:24.995Z,0.00
2017-12-03T15:30:53.817Z,0.00
2017-12-03T15:33:23.129Z,0.00
2017-12-03T15:35:52.357Z,0.00
2017-12-03T15:38:21.019Z,0.00
2017-12-03T15:40:50.301Z,0.00
2017-12-03T15:43:19.558Z,0.00
2017-12-03T15:45:49.043Z,0.00
2017-12-03T15:48:17.536Z,0.00
2017-12-03T15:50:46.207Z,0.00
2017-12-03T15:53:15.101Z,0.00
2017-12-03T15:55:44.405Z,0.00
2017-12-03T15:58:12.827Z,0.00
2017-12-03T16:00:41.544Z,0.00
2017-12-03T16:03:10.931Z,0.00
2017-12-03T16:05:39.437Z,0.00
2017-12-03T16:08:08.021Z,0.00
2017-12-03T16:10:37.271Z,0.00
2017-12-03T16:13:05.718Z,0.00
2017-12-03T16:15:34.924Z,0.00
2017-12-03T16:18:03.436Z,0.00
2017-12-03T16:20:32.702Z,0.00
2017-12-03T16:23:01.559Z,0.00
2017-12-03T16:25:30.025Z,0.00
2017-12-03T16:27:58.745Z,0.00
2017-12-03T16:30:27.428Z,0.00
2017-12-03T16:32:55.930Z,0.00
2017-12-03T16:35:24.391Z,0.00
2017-12-03T16:37:53.052Z,0.10
2017-12-03T16:40:22.317Z,0.00
2017-12-03T16:42:50.739Z,0.00
2017-12-03T16:45:20.244Z,0.00
2017-12-03T16:47:49.485Z,0.00
2017-12-03T16:50:17.964Z,0.00
2017-12-03T16:52:46.664Z,0.10
2017-12-03T16:55:15.168Z,0.00
2017-12-03T16:57:43.683Z,0.00
2017-12-03T17:00:12.418Z,0.00
2017-12-03T17:02:40.893Z,0.00
2017-12-03T17:05:09.451Z,0.10
2017-12-03T17:07:37.921Z,0.10
2017-12-03T17:10:06.377Z,0.10
2017-12-03T17:12:35.566Z,0.10
2017-12-03T17:15:04.254Z,0.10
2017-12-03T17:17:33.914Z,0.10
2017-12-03T17:20:02.389Z,0.10
2017-12-03T17:22:31.048Z,0.10
2017-12-03T17:24:59.529Z,0.20
2017-12-03T17:27:28.891Z,0.10
2017-12-03T17:29:57.643Z,0.10
2017-12-03T17:32:26.153Z,0.20
2017-12-03T17:34:54.677Z,0.10
2017-12-03T17:37:24.286Z,0.10
2017-12-03T17:39:53.494Z,0.10
2017-12-03T17:42:22.020Z,0.10
2017-12-03T17:44:50.663Z,0.10
2017-12-03T17:47:19.080Z,0.10
2017-12-03T17:49:47.513Z,0.20
2017-12-03T17:52:16.030Z,0.10
2017-12-03T17:54:44.509Z,0.20
2017-12-03T17:57:13.770Z,0.10
2017-12-03T17:59:42.221Z,0.10
2017-12-03T18:02:10.666Z,0.20
2017-12-03T18:04:39.076Z,0.10
2017-12-03T18:07:07.913Z,0.20
2017-12-03T18:09:36.344Z,0.10
2017-12-03T18:12:06.264Z,0.10
2017-12-03T18:14:34.858Z,0.10
2017-12-03T18:17:03.284Z,0.10
2017-12-03T18:19:32.077Z,0.20
2017-12-03T18:22:00.522Z,0.20
2017-12-03T18:24:29.723Z,0.20
2017-12-03T18:26:58.926Z,0.20
2017-12-03T18:29:27.705Z,0.20
2017-12-03T18:31:57.261Z,0.20
2017-12-03T18:34:25.741Z,0.20
2017-12-03T18:36:54.647Z,0.20
2017-12-03T18:39:23.090Z,0.20
2017-12-03T18:41:51.566Z,0.20
2017-12-03T18:44:20.292Z,0.20
2017-12-03T18:46:48.834Z,0.20
2017-12-03T18:49:17.297Z,0.20
2017-12-03T18:51:46.574Z,0.20
2017-12-03T18:54:15.056Z,0.20
2017-12-03T18:56:43.707Z,0.20
2017-12-03T18:59:12.223Z,0.20
2017-12-03T19:01:40.691Z,0.30
2017-12-03T19:04:09.168Z,0.30
2017-12-03T19:06:37.651Z,0.30
2017-12-03T19:09:06.094Z,0.30
2017-12-03T19:11:34.515Z,0.30
2017-12-03T19:14:03.072Z,0.30
2017-12-03T19:16:32.317Z,0.30
2017-12-03T19:19:00.848Z,0.30
2017-12-03T19:21:29.993Z,0.30
2017-12-03T19:23:59.232Z,0.30
2017-12-03T19:26:27.645Z,0.30
2017-12-03T19:28:56.099Z,0.30
2017-12-03T19:31:25.367Z,0.20
2017-12-03T19:33:54.622Z,0.30
2017-12-03T19:36:23.104Z,0.30
2017-12-03T19:38:51.565Z,0.30
2017-12-03T19:41:20.837Z,0.30
2017-12-03T19:43:49.313Z,0.30
2017-12-03T19:46:17.824Z,0.30
2017-12-03T19:48:46.296Z,0.40
2017-12-03T19:51:14.744Z,0.30
2017-12-03T19:53:43.972Z,0.30
2017-12-03T19:56:13.265Z,0.30
2017-12-03T19:58:41.825Z,0.30
2017-12-03T20:01:11.021Z,0.30
2017-12-03T20:03:41.120Z,0.30
2017-12-03T20:06:09.862Z,0.30
2017-12-03T20:08:38.315Z,0.40
2017-12-03T20:11:07.591Z,0.30
2017-12-03T20:13:36.190Z,0.30
2017-12-03T20:16:05.425Z,0.30
2017-12-03T20:18:33.899Z,0.30
2017-12-03T20:21:02.348Z,0.40
2017-12-03T20:23:31.886Z,0.30
2017-12-03T20:26:00.353Z,0.30
2017-12-03T20:28:29.033Z,0.40
2017-12-03T20:30:58.327Z,0.40
2017-12-03T20:33:27.552Z,0.40
2017-12-03T20:35:56.687Z,0.40
2017-12-03T20:38:25.170Z,0.40
2017-12-03T20:40:53.719Z,0.40
2017-12-03T20:43:22.394Z,0.30
2017-12-03T20:45:50.864Z,0.30
2017-12-03T20:48:19.356Z,0.40
2017-12-03T20:50:47.970Z,0.40
2017-12-03T20:53:16.418Z,0.40
2017-12-03T20:55:44.875Z,0.40
2017-12-03T20:58:14.283Z,0.40
2017-12-03T21:00:43.102Z,0.40
2017-12-03T21:03:11.553Z,0.30
2017-12-03T21:05:40.950Z,0.40
2017-12-03T21:08:10.183Z,0.40
2017-12-03T21:10:38.625Z,0.40
2017-12-03T21:13:07.896Z,0.40
2017-12-03T21:15:36.333Z,0.40
2017-12-03T21:18:04.812Z,0.40
2017-12-03T21:20:33.317Z,0.40
2017-12-03T21:23:01.728Z,0.40
2017-12-03T21:25:30.411Z,0.50
2017-12-03T21:27:58.915Z,0.50
2017-12-03T21:30:27.337Z,0.40
2017-12-03T21:32:55.774Z,0.50
2017-12-03T21:35:24.978Z,0.50
2017-12-03T21:37:54.195Z,0.50
2017-12-03T21:40:22.599Z,0.50
2017-12-03T21:42:51.514Z,0.50
2017-12-03T21:45:19.941Z,0.50
2017-12-03T21:47:48.352Z,0.60
2017-12-03T21:50:17.157Z,0.50
2017-12-03T21:52:45.567Z,0.50
2017-12-03T21:55:14.016Z,0.50
2017-12-03T21:57:42.808Z,0.50
2017-12-03T22:00:18.192Z,0.50
2017-12-03T22:02:46.978Z,0.50
2017-12-03T22:05:16.211Z,0.50
2017-12-03T22:07:44.698Z,0.50
2017-12-03T22:10:13.181Z,0.60
2017-12-03T22:12:42.470Z,0.50
2017-12-03T22:15:10.953Z,0.60
2017-12-03T22:17:39.597Z,0.60
2017-12-03T22:20:08.797Z,0.60
2017-12-03T22:22:37.974Z,0.60
2017-12-03T22:25:06.523Z,0.60
2017-12-03T22:27:35.331Z,0.60
2017-12-03T22:30:03.872Z,0.60
2017-12-03T22:32:32.418Z,0.60
2017-12-03T22:35:01.575Z,0.60
2017-12-03T22:37:30.038Z,0.60
2017-12-03T22:39:58.791Z,0.70
2017-12-03T22:42:27.980Z,0.70
2017-12-03T22:44:56.396Z,0.70
2017-12-03T22:47:25.132Z,0.60
2017-12-03T22:49:53.548Z,0.70
2017-12-03T22:52:22.718Z,0.70
2017-12-03T22:54:51.546Z,0.70
2017-12-03T22:57:19.939Z,0.70
2017-12-03T22:59:48.326Z,0.70
2017-12-03T23:02:17.130Z,0.70
2017-12-03T23:04:46.387Z,0.70
2017-12-03T23:07:14.773Z,0.60
2017-12-03T23:09:43.328Z,0.70
2017-12-03T23:12:12.484Z,0.70
2017-12-03T23:14:41.011Z,0.70
2017-12-03T23:17:10.719Z,0.70
2017-12-03T23:19:39.866Z,0.70
2017-12-03T23:22:08.267Z,0.70
2017-12-03T23:24:36.750Z,0.70
2017-12-03T23:27:05.357Z,0.70
2017-12-03T23:29:34.799Z,0.70
2017-12-03T23:32:03.445Z,0.70
2017-12-03T23:34:32.610Z,0.70
2017-12-03T23:37:01.089Z,0.70
2017-12-03T23:39:29.812Z,0.80
2017-12-03T23:41:59.040Z,0.70
2017-12-03T23:44:27.511Z,0.70
2017-12-03T23:46:56.279Z,0.80
2017-12-03T23:49:25.478Z,0.70
2017-12-03T23:51:54.770Z,0.70
2017-12-03T23:54:24.346Z,0.70
2017-12-03T23:56:52.846Z,0.70
2017-12-03T23:59:21.268Z,0.70
